Terminal Aerodrome Forecast
Issued by NWS

Home | Current Version | Previous Version | Text Only | Print | Product List | Glossary On
Versions: 1 2 3 4 5 6 7 8 9 10 11 12 13 14 15 16 17 18 19 20 21 22 23 24 25 26
000
FTUS46 KMTR 150900 AAA
TAFSFO
TAF AMD
KSFO 150906Z 1509/1612 28011KT P6SM FEW009 SCT018
     FM151400 28004KT P6SM FEW008 BKN011
     FM151800 29010KT P6SM FEW008
     FM152200 30018KT P6SM FEW012
     FM160400 30010KT P6SM FEW010=

USA.gov is the U.S. government's official web portal to all federal, state and local government web resources and services.